sensor_id;sensor_type;location;lat;lon;timestamp;P1;durP1;ratioP1;P2;durP2;ratioP2
44120;SDS011;29783;52.504;13.478;2022-10-17T00:01:42;16.08;;;7.40;;
44120;SDS011;29783;52.504;13.478;2022-10-17T00:04:07;12.07;;;7.13;;
44120;SDS011;29783;52.504;13.478;2022-10-17T00:06:33;10.35;;;7.05;;
44120;SDS011;29783;52.504;13.478;2022-10-17T00:08:59;9.98;;;6.60;;
44120;SDS011;29783;52.504;13.478;2022-10-17T00:11:25;11.65;;;7.07;;
44120;SDS011;29783;52.504;13.478;2022-10-17T00:13:52;13.20;;;7.15;;
44120;SDS011;29783;52.504;13.478;2022-10-17T00:16:25;9.57;;;6.63;;
44120;SDS011;29783;52.504;13.478;2022-10-17T00:18:53;11.80;;;6.35;;
44120;SDS011;29783;52.504;13.478;2022-10-17T00:21:19;8.07;;;5.85;;
44120;SDS011;29783;52.504;13.478;2022-10-17T00:23:46;13.00;;;6.15;;
44120;SDS011;29783;52.504;13.478;2022-10-17T00:26:11;10.00;;;5.60;;
44120;SDS011;29783;52.504;13.478;2022-10-17T00:28:37;10.75;;;5.90;;
44120;SDS011;29783;52.504;13.478;2022-10-17T00:31:04;9.07;;;5.82;;
44120;SDS011;29783;52.504;13.478;2022-10-17T00:33:31;9.38;;;5.20;;
44120;SDS011;29783;52.504;13.478;2022-10-17T00:36:12;6.20;;;4.50;;
44120;SDS011;29783;52.504;13.478;2022-10-17T00:38:38;11.85;;;4.70;;
44120;SDS011;29783;52.504;13.478;2022-10-17T00:41:07;8.95;;;4.90;;
44120;SDS011;29783;52.504;13.478;2022-10-17T00:46:54;6.05;;;4.43;;
44120;SDS011;29783;52.504;13.478;2022-10-17T00:49:23;6.50;;;4.60;;
44120;SDS011;29783;52.504;13.478;2022-10-17T00:51:53;9.00;;;4.25;;
44120;SDS011;29783;52.504;13.478;2022-10-17T00:54:32;11.05;;;4.53;;
44120;SDS011;29783;52.504;13.478;2022-10-17T00:57:01;5.47;;;4.15;;
44120;SDS011;29783;52.504;13.478;2022-10-17T00:59:27;7.38;;;4.20;;
44120;SDS011;29783;52.504;13.478;2022-10-17T01:02:00;8.65;;;4.60;;
44120;SDS011;29783;52.504;13.478;2022-10-17T01:04:31;8.32;;;4.18;;
44120;SDS011;29783;52.504;13.478;2022-10-17T01:06:57;14.23;;;4.45;;
44120;SDS011;29783;52.504;13.478;2022-10-17T01:09:23;8.18;;;3.83;;
44120;SDS011;29783;52.504;13.478;2022-10-17T01:26:02;4.38;;;3.60;;
44120;SDS011;29783;52.504;13.478;2022-10-17T01:31:35;5.50;;;3.90;;
44120;SDS011;29783;52.504;13.478;2022-10-17T01:34:15;4.97;;;3.58;;
44120;SDS011;29783;52.504;13.478;2022-10-17T01:36:50;4.50;;;3.53;;
44120;SDS011;29783;52.504;13.478;2022-10-17T01:44:33;5.63;;;4.20;;
44120;SDS011;29783;52.504;13.478;2022-10-17T01:49:38;4.05;;;3.33;;
44120;SDS011;29783;52.504;13.478;2022-10-17T01:52:09;9.18;;;3.58;;
44120;SDS011;29783;52.504;13.478;2022-10-17T01:54:47;8.23;;;3.90;;
44120;SDS011;29783;52.504;13.478;2022-10-17T01:57:32;5.25;;;3.80;;
44120;SDS011;29783;52.504;13.478;2022-10-17T02:00:03;14.90;;;4.28;;
44120;SDS011;29783;52.504;13.478;2022-10-17T02:02:34;4.30;;;3.90;;
44120;SDS011;29783;52.504;13.478;2022-10-17T02:05:00;5.68;;;3.85;;
44120;SDS011;29783;52.504;13.478;2022-10-17T02:07:28;5.60;;;3.60;;
44120;SDS011;29783;52.504;13.478;2022-10-17T02:09:54;8.35;;;4.10;;
44120;SDS011;29783;52.504;13.478;2022-10-17T02:12:34;7.28;;;4.13;;
44120;SDS011;29783;52.504;13.478;2022-10-17T02:21:06;6.10;;;4.03;;
44120;SDS011;29783;52.504;13.478;2022-10-17T02:28:44;6.60;;;4.78;;
44120;SDS011;29783;52.504;13.478;2022-10-17T02:31:17;7.43;;;4.28;;
44120;SDS011;29783;52.504;13.478;2022-10-17T02:36:20;18.67;;;4.55;;
44120;SDS011;29783;52.504;13.478;2022-10-17T02:38:50;7.78;;;4.28;;
44120;SDS011;29783;52.504;13.478;2022-10-17T02:41:18;5.13;;;3.83;;
44120;SDS011;29783;52.504;13.478;2022-10-17T02:43:46;7.88;;;5.18;;
44120;SDS011;29783;52.504;13.478;2022-10-17T02:46:14;5.30;;;4.03;;
44120;SDS011;29783;52.504;13.478;2022-10-17T02:48:55;6.35;;;4.22;;
44120;SDS011;29783;52.504;13.478;2022-10-17T02:56:36;4.78;;;3.92;;
44120;SDS011;29783;52.504;13.478;2022-10-17T02:59:08;6.72;;;4.07;;
44120;SDS011;29783;52.504;13.478;2022-10-17T03:01:39;5.90;;;4.40;;
44120;SDS011;29783;52.504;13.478;2022-10-17T03:04:07;5.97;;;3.72;;
44120;SDS011;29783;52.504;13.478;2022-10-17T03:06:35;5.97;;;4.28;;
44120;SDS011;29783;52.504;13.478;2022-10-17T03:09:01;7.38;;;4.20;;
44120;SDS011;29783;52.504;13.478;2022-10-17T03:11:28;4.90;;;3.88;;
44120;SDS011;29783;52.504;13.478;2022-10-17T03:13:53;7.22;;;4.20;;
44120;SDS011;29783;52.504;13.478;2022-10-17T03:16:19;7.53;;;4.63;;
44120;SDS011;29783;52.504;13.478;2022-10-17T03:18:45;4.75;;;3.80;;
44120;SDS011;29783;52.504;13.478;2022-10-17T03:21:11;4.22;;;3.53;;
44120;SDS011;29783;52.504;13.478;2022-10-17T03:23:36;8.02;;;3.75;;
44120;SDS011;29783;52.504;13.478;2022-10-17T03:26:06;6.75;;;4.50;;
44120;SDS011;29783;52.504;13.478;2022-10-17T03:28:32;5.05;;;3.78;;
44120;SDS011;29783;52.504;13.478;2022-10-17T03:30:58;6.57;;;3.95;;
44120;SDS011;29783;52.504;13.478;2022-10-17T03:33:23;6.82;;;4.45;;
44120;SDS011;29783;52.504;13.478;2022-10-17T03:35:49;7.47;;;3.65;;
44120;SDS011;29783;52.504;13.478;2022-10-17T03:38:15;4.57;;;3.63;;
44120;SDS011;29783;52.504;13.478;2022-10-17T03:40:40;8.05;;;3.65;;
44120;SDS011;29783;52.504;13.478;2022-10-17T03:43:06;6.38;;;3.58;;
44120;SDS011;29783;52.504;13.478;2022-10-17T03:45:32;4.82;;;3.85;;
44120;SDS011;29783;52.504;13.478;2022-10-17T03:47:58;7.10;;;3.95;;
44120;SDS011;29783;52.504;13.478;2022-10-17T03:50:23;5.90;;;4.00;;
44120;SDS011;29783;52.504;13.478;2022-10-17T03:52:49;7.95;;;3.58;;
44120;SDS011;29783;52.504;13.478;2022-10-17T03:55:15;6.15;;;3.63;;
44120;SDS011;29783;52.504;13.478;2022-10-17T03:57:41;5.22;;;3.40;;
44120;SDS011;29783;52.504;13.478;2022-10-17T04:00:08;8.77;;;3.63;;
44120;SDS011;29783;52.504;13.478;2022-10-17T04:02:34;10.13;;;4.00;;
44120;SDS011;29783;52.504;13.478;2022-10-17T04:05:00;6.70;;;4.20;;
44120;SDS011;29783;52.504;13.478;2022-10-17T04:07:26;6.20;;;4.10;;
44120;SDS011;29783;52.504;13.478;2022-10-17T04:09:52;4.38;;;3.88;;
44120;SDS011;29783;52.504;13.478;2022-10-17T04:12:18;4.90;;;3.92;;
44120;SDS011;29783;52.504;13.478;2022-10-17T04:14:44;4.57;;;3.65;;
44120;SDS011;29783;52.504;13.478;2022-10-17T04:17:09;10.55;;;4.47;;
44120;SDS011;29783;52.504;13.478;2022-10-17T04:19:35;7.57;;;4.63;;
44120;SDS011;29783;52.504;13.478;2022-10-17T04:22:01;5.05;;;4.38;;
44120;SDS011;29783;52.504;13.478;2022-10-17T04:24:32;8.27;;;5.57;;
44120;SDS011;29783;52.504;13.478;2022-10-17T04:26:58;6.18;;;4.68;;
44120;SDS011;29783;52.504;13.478;2022-10-17T04:29:24;5.78;;;4.53;;
44120;SDS011;29783;52.504;13.478;2022-10-17T04:31:50;8.27;;;4.82;;
44120;SDS011;29783;52.504;13.478;2022-10-17T04:34:16;6.75;;;4.90;;
44120;SDS011;29783;52.504;13.478;2022-10-17T04:36:42;4.97;;;4.47;;
44120;SDS011;29783;52.504;13.478;2022-10-17T04:39:20;10.15;;;4.90;;
44120;SDS011;29783;52.504;13.478;2022-10-17T04:41:46;10.90;;;6.25;;
44120;SDS011;29783;52.504;13.478;2022-10-17T04:44:13;6.85;;;6.00;;
44120;SDS011;29783;52.504;13.478;2022-10-17T04:46:38;7.88;;;5.68;;
44120;SDS011;29783;52.504;13.478;2022-10-17T04:49:04;6.68;;;5.75;;
44120;SDS011;29783;52.504;13.478;2022-10-17T04:51:30;14.00;;;5.03;;
44120;SDS011;29783;52.504;13.478;2022-10-17T04:53:56;8.57;;;5.50;;
44120;SDS011;29783;52.504;13.478;2022-10-17T04:56:23;8.55;;;5.30;;
44120;SDS011;29783;52.504;13.478;2022-10-17T04:58:49;9.15;;;5.22;;
44120;SDS011;29783;52.504;13.478;2022-10-17T05:01:16;11.88;;;5.65;;
44120;SDS011;29783;52.504;13.478;2022-10-17T05:03:43;6.03;;;5.43;;
44120;SDS011;29783;52.504;13.478;2022-10-17T05:06:10;6.18;;;5.32;;
44120;SDS011;29783;52.504;13.478;2022-10-17T05:08:38;5.93;;;5.32;;
44120;SDS011;29783;52.504;13.478;2022-10-17T05:11:04;7.78;;;5.70;;
44120;SDS011;29783;52.504;13.478;2022-10-17T05:16:26;5.95;;;5.45;;
44120;SDS011;29783;52.504;13.478;2022-10-17T05:18:54;7.60;;;6.22;;
44120;SDS011;29783;52.504;13.478;2022-10-17T05:21:22;11.50;;;6.40;;
44120;SDS011;29783;52.504;13.478;2022-10-17T05:24:08;13.57;;;6.40;;
44120;SDS011;29783;52.504;13.478;2022-10-17T05:26:35;14.40;;;6.72;;
44120;SDS011;29783;52.504;13.478;2022-10-17T05:29:00;9.15;;;7.10;;
44120;SDS011;29783;52.504;13.478;2022-10-17T05:31:38;8.77;;;6.95;;
44120;SDS011;29783;52.504;13.478;2022-10-17T05:34:03;8.68;;;6.80;;
44120;SDS011;29783;52.504;13.478;2022-10-17T05:36:29;9.63;;;6.78;;
44120;SDS011;29783;52.504;13.478;2022-10-17T05:38:56;10.77;;;6.70;;
44120;SDS011;29783;52.504;13.478;2022-10-17T05:41:21;10.32;;;6.95;;
44120;SDS011;29783;52.504;13.478;2022-10-17T05:43:47;9.18;;;6.93;;
44120;SDS011;29783;52.504;13.478;2022-10-17T05:46:14;8.52;;;6.60;;
44120;SDS011;29783;52.504;13.478;2022-10-17T05:48:39;7.45;;;6.75;;
44120;SDS011;29783;52.504;13.478;2022-10-17T05:51:06;15.25;;;7.78;;
44120;SDS011;29783;52.504;13.478;2022-10-17T05:53:34;11.13;;;7.00;;
44120;SDS011;29783;52.504;13.478;2022-10-17T05:56:03;11.05;;;6.60;;
44120;SDS011;29783;52.504;13.478;2022-10-17T05:58:32;10.10;;;6.85;;
44120;SDS011;29783;52.504;13.478;2022-10-17T06:00:59;7.75;;;6.80;;
44120;SDS011;29783;52.504;13.478;2022-10-17T06:03:26;11.25;;;7.25;;
44120;SDS011;29783;52.504;13.478;2022-10-17T06:05:52;13.20;;;7.40;;
44120;SDS011;29783;52.504;13.478;2022-10-17T06:11:48;10.50;;;6.75;;
44120;SDS011;29783;52.504;13.478;2022-10-17T06:16:39;8.98;;;6.57;;
44120;SDS011;29783;52.504;13.478;2022-10-17T06:19:05;9.48;;;7.32;;
44120;SDS011;29783;52.504;13.478;2022-10-17T06:21:31;9.52;;;7.07;;
44120;SDS011;29783;52.504;13.478;2022-10-17T06:24:00;10.68;;;7.38;;
44120;SDS011;29783;52.504;13.478;2022-10-17T06:26:27;7.53;;;6.70;;
44120;SDS011;29783;52.504;13.478;2022-10-17T06:28:53;19.30;;;7.15;;
44120;SDS011;29783;52.504;13.478;2022-10-17T06:31:19;13.85;;;6.57;;
44120;SDS011;29783;52.504;13.478;2022-10-17T06:37:04;8.18;;;6.38;;
44120;SDS011;29783;52.504;13.478;2022-10-17T06:39:29;8.20;;;6.55;;
44120;SDS011;29783;52.504;13.478;2022-10-17T06:41:58;14.68;;;6.70;;
44120;SDS011;29783;52.504;13.478;2022-10-17T06:44:25;7.38;;;6.57;;
44120;SDS011;29783;52.504;13.478;2022-10-17T06:46:54;9.68;;;6.75;;
44120;SDS011;29783;52.504;13.478;2022-10-17T06:49:20;8.45;;;6.60;;
44120;SDS011;29783;52.504;13.478;2022-10-17T06:51:46;11.68;;;6.30;;
44120;SDS011;29783;52.504;13.478;2022-10-17T06:54:12;13.68;;;5.85;;
44120;SDS011;29783;52.504;13.478;2022-10-17T06:56:38;10.43;;;6.43;;
44120;SDS011;29783;52.504;13.478;2022-10-17T06:59:03;12.80;;;6.50;;
44120;SDS011;29783;52.504;13.478;2022-10-17T07:01:29;7.25;;;5.90;;
44120;SDS011;29783;52.504;13.478;2022-10-17T07:03:56;8.77;;;5.88;;
44120;SDS011;29783;52.504;13.478;2022-10-17T07:06:21;15.55;;;5.90;;
44120;SDS011;29783;52.504;13.478;2022-10-17T07:08:49;13.90;;;6.45;;
44120;SDS011;29783;52.504;13.478;2022-10-17T07:11:20;15.00;;;6.82;;
44120;SDS011;29783;52.504;13.478;2022-10-17T07:13:47;17.10;;;6.32;;
44120;SDS011;29783;52.504;13.478;2022-10-17T07:16:13;8.50;;;5.82;;
44120;SDS011;29783;52.504;13.478;2022-10-17T07:18:40;8.73;;;5.90;;
44120;SDS011;29783;52.504;13.478;2022-10-17T07:24:10;7.20;;;5.72;;
44120;SDS011;29783;52.504;13.478;2022-10-17T07:26:36;12.52;;;5.43;;
44120;SDS011;29783;52.504;13.478;2022-10-17T07:29:02;8.93;;;6.15;;
44120;SDS011;29783;52.504;13.478;2022-10-17T07:31:27;15.52;;;5.97;;
44120;SDS011;29783;52.504;13.478;2022-10-17T07:33:53;7.15;;;5.57;;
44120;SDS011;29783;52.504;13.478;2022-10-17T07:36:19;7.80;;;5.35;;
44120;SDS011;29783;52.504;13.478;2022-10-17T07:38:45;6.57;;;5.15;;
44120;SDS011;29783;52.504;13.478;2022-10-17T07:41:11;15.23;;;5.07;;
44120;SDS011;29783;52.504;13.478;2022-10-17T07:43:37;7.95;;;5.13;;
44120;SDS011;29783;52.504;13.478;2022-10-17T07:46:04;6.53;;;4.68;;
44120;SDS011;29783;52.504;13.478;2022-10-17T07:48:30;7.53;;;4.55;;
44120;SDS011;29783;52.504;13.478;2022-10-17T07:50:56;10.50;;;4.60;;
44120;SDS011;29783;52.504;13.478;2022-10-17T07:53:25;9.40;;;4.43;;
44120;SDS011;29783;52.504;13.478;2022-10-17T07:55:51;9.90;;;4.38;;
44120;SDS011;29783;52.504;13.478;2022-10-17T07:58:17;9.32;;;3.88;;
44120;SDS011;29783;52.504;13.478;2022-10-17T08:00:42;10.50;;;4.00;;
44120;SDS011;29783;52.504;13.478;2022-10-17T08:03:12;6.80;;;3.90;;
44120;SDS011;29783;52.504;13.478;2022-10-17T08:05:37;5.93;;;3.30;;
44120;SDS011;29783;52.504;13.478;2022-10-17T08:08:19;6.30;;;3.38;;
44120;SDS011;29783;52.504;13.478;2022-10-17T08:15:04;7.22;;;3.03;;
44120;SDS011;29783;52.504;13.478;2022-10-17T08:17:32;4.82;;;3.25;;
44120;SDS011;29783;52.504;13.478;2022-10-17T08:19:59;9.73;;;3.33;;
44120;SDS011;29783;52.504;13.478;2022-10-17T08:22:25;3.88;;;3.08;;
44120;SDS011;29783;52.504;13.478;2022-10-17T08:24:51;7.10;;;3.30;;
44120;SDS011;29783;52.504;13.478;2022-10-17T08:27:16;8.90;;;3.17;;
44120;SDS011;29783;52.504;13.478;2022-10-17T08:29:48;8.57;;;3.10;;
44120;SDS011;29783;52.504;13.478;2022-10-17T08:32:17;12.52;;;2.90;;
44120;SDS011;29783;52.504;13.478;2022-10-17T08:34:46;11.23;;;2.90;;
44120;SDS011;29783;52.504;13.478;2022-10-17T08:37:19;5.43;;;3.22;;
44120;SDS011;29783;52.504;13.478;2022-10-17T08:39:48;10.10;;;3.05;;
44120;SDS011;29783;52.504;13.478;2022-10-17T08:45:23;5.20;;;2.92;;
44120;SDS011;29783;52.504;13.478;2022-10-17T08:48:01;9.98;;;3.08;;
44120;SDS011;29783;52.504;13.478;2022-10-17T08:53:03;9.50;;;2.75;;
44120;SDS011;29783;52.504;13.478;2022-10-17T08:55:46;4.97;;;3.60;;
44120;SDS011;29783;52.504;13.478;2022-10-17T08:58:14;9.05;;;5.63;;
44120;SDS011;29783;52.504;13.478;2022-10-17T09:00:44;7.25;;;2.90;;
44120;SDS011;29783;52.504;13.478;2022-10-17T09:06:48;5.28;;;2.10;;
44120;SDS011;29783;52.504;13.478;2022-10-17T09:20:23;7.35;;;2.15;;
44120;SDS011;29783;52.504;13.478;2022-10-17T09:22:55;8.60;;;2.30;;
44120;SDS011;29783;52.504;13.478;2022-10-17T09:25:24;3.50;;;2.10;;
44120;SDS011;29783;52.504;13.478;2022-10-17T09:27:53;5.57;;;2.38;;
44120;SDS011;29783;52.504;13.478;2022-10-17T09:33:17;9.38;;;2.33;;
44120;SDS011;29783;52.504;13.478;2022-10-17T09:35:44;8.13;;;2.50;;
44120;SDS011;29783;52.504;13.478;2022-10-17T09:38:16;3.35;;;2.30;;
44120;SDS011;29783;52.504;13.478;2022-10-17T09:40:44;6.20;;;2.20;;
44120;SDS011;29783;52.504;13.478;2022-10-17T09:43:31;8.25;;;2.22;;
44120;SDS011;29783;52.504;13.478;2022-10-17T09:46:11;9.55;;;2.10;;
44120;SDS011;29783;52.504;13.478;2022-10-17T09:48:52;3.37;;;2.20;;
44120;SDS011;29783;52.504;13.478;2022-10-17T09:58:49;5.40;;;2.70;;
44120;SDS011;29783;52.504;13.478;2022-10-17T10:04:14;4.57;;;2.20;;
44120;SDS011;29783;52.504;13.478;2022-10-17T10:06:59;2.35;;;1.85;;
44120;SDS011;29783;52.504;13.478;2022-10-17T10:09:29;5.97;;;2.22;;
44120;SDS011;29783;52.504;13.478;2022-10-17T10:11:57;6.57;;;2.10;;
44120;SDS011;29783;52.504;13.478;2022-10-17T10:14:32;3.90;;;2.10;;
44120;SDS011;29783;52.504;13.478;2022-10-17T10:17:00;8.23;;;2.10;;
44120;SDS011;29783;52.504;13.478;2022-10-17T10:19:32;4.28;;;1.90;;
44120;SDS011;29783;52.504;13.478;2022-10-17T10:22:00;13.98;;;2.33;;
44120;SDS011;29783;52.504;13.478;2022-10-17T10:24:28;4.90;;;2.20;;
44120;SDS011;29783;52.504;13.478;2022-10-17T10:26:58;4.32;;;2.28;;
44120;SDS011;29783;52.504;13.478;2022-10-17T10:29:30;4.53;;;1.95;;
44120;SDS011;29783;52.504;13.478;2022-10-17T10:32:24;4.57;;;1.73;;
44120;SDS011;29783;52.504;13.478;2022-10-17T10:34:57;5.65;;;2.20;;
44120;SDS011;29783;52.504;13.478;2022-10-17T10:40:16;4.13;;;1.83;;
44120;SDS011;29783;52.504;13.478;2022-10-17T10:42:49;4.53;;;1.90;;
44120;SDS011;29783;52.504;13.478;2022-10-17T10:45:27;2.58;;;1.65;;
44120;SDS011;29783;52.504;13.478;2022-10-17T10:50:55;11.35;;;2.10;;
44120;SDS011;29783;52.504;13.478;2022-10-17T10:53:40;2.90;;;2.10;;
44120;SDS011;29783;52.504;13.478;2022-10-17T11:02:09;6.43;;;1.67;;
44120;SDS011;29783;52.504;13.478;2022-10-17T11:04:57;3.78;;;1.90;;
44120;SDS011;29783;52.504;13.478;2022-10-17T11:07:35;11.77;;;2.30;;
44120;SDS011;29783;52.504;13.478;2022-10-17T11:15:46;8.27;;;1.48;;
44120;SDS011;29783;52.504;13.478;2022-10-17T11:18:27;8.68;;;2.30;;
44120;SDS011;29783;52.504;13.478;2022-10-17T11:21:00;6.03;;;2.17;;
44120;SDS011;29783;52.504;13.478;2022-10-17T11:23:45;5.80;;;1.67;;
44120;SDS011;29783;52.504;13.478;2022-10-17T11:26:20;3.25;;;1.88;;
44120;SDS011;29783;52.504;13.478;2022-10-17T11:28:52;9.57;;;2.60;;
44120;SDS011;29783;52.504;13.478;2022-10-17T11:31:21;4.03;;;1.75;;
44120;SDS011;29783;52.504;13.478;2022-10-17T11:36:29;14.77;;;1.58;;
44120;SDS011;29783;52.504;13.478;2022-10-17T11:41:35;10.48;;;1.80;;
44120;SDS011;29783;52.504;13.478;2022-10-17T11:47:19;9.50;;;1.85;;
44120;SDS011;29783;52.504;13.478;2022-10-17T11:49:58;5.22;;;2.15;;
44120;SDS011;29783;52.504;13.478;2022-10-17T11:52:37;6.82;;;2.08;;
44120;SDS011;29783;52.504;13.478;2022-10-17T11:55:23;5.00;;;1.77;;
44120;SDS011;29783;52.504;13.478;2022-10-17T12:06:26;4.78;;;2.25;;
44120;SDS011;29783;52.504;13.478;2022-10-17T12:09:14;4.78;;;2.17;;
44120;SDS011;29783;52.504;13.478;2022-10-17T12:11:56;9.02;;;2.50;;
44120;SDS011;29783;52.504;13.478;2022-10-17T12:17:29;4.38;;;2.47;;
44120;SDS011;29783;52.504;13.478;2022-10-17T12:22:54;3.38;;;2.10;;
44120;SDS011;29783;52.504;13.478;2022-10-17T12:25:27;10.93;;;3.05;;
44120;SDS011;29783;52.504;13.478;2022-10-17T12:30:30;7.28;;;2.38;;
44120;SDS011;29783;52.504;13.478;2022-10-17T12:33:01;4.68;;;2.13;;
44120;SDS011;29783;52.504;13.478;2022-10-17T12:35:39;6.05;;;2.20;;
44120;SDS011;29783;52.504;13.478;2022-10-17T12:51:07;7.70;;;2.55;;
44120;SDS011;29783;52.504;13.478;2022-10-17T12:56:30;7.25;;;1.90;;
44120;SDS011;29783;52.504;13.478;2022-10-17T12:58:59;5.25;;;1.83;;
44120;SDS011;29783;52.504;13.478;2022-10-17T13:01:31;6.28;;;1.73;;
44120;SDS011;29783;52.504;13.478;2022-10-17T13:04:01;8.18;;;1.98;;
44120;SDS011;29783;52.504;13.478;2022-10-17T13:06:30;3.55;;;1.60;;
44120;SDS011;29783;52.504;13.478;2022-10-17T13:09:05;11.48;;;2.03;;
44120;SDS011;29783;52.504;13.478;2022-10-17T13:11:39;9.32;;;2.08;;
44120;SDS011;29783;52.504;13.478;2022-10-17T13:14:13;7.00;;;2.15;;
44120;SDS011;29783;52.504;13.478;2022-10-17T13:16:50;7.55;;;2.30;;
44120;SDS011;29783;52.504;13.478;2022-10-17T13:19:26;5.32;;;2.00;;
44120;SDS011;29783;52.504;13.478;2022-10-17T13:21:56;22.23;;;2.33;;
44120;SDS011;29783;52.504;13.478;2022-10-17T13:24:30;10.68;;;2.28;;
44120;SDS011;29783;52.504;13.478;2022-10-17T13:26:56;6.85;;;1.88;;
44120;SDS011;29783;52.504;13.478;2022-10-17T13:29:22;7.28;;;1.77;;
44120;SDS011;29783;52.504;13.478;2022-10-17T13:31:56;4.70;;;1.73;;
44120;SDS011;29783;52.504;13.478;2022-10-17T13:34:25;7.35;;;2.00;;
44120;SDS011;29783;52.504;13.478;2022-10-17T13:37:11;7.53;;;1.90;;
44120;SDS011;29783;52.504;13.478;2022-10-17T13:39:40;9.40;;;2.03;;
44120;SDS011;29783;52.504;13.478;2022-10-17T13:42:19;5.50;;;1.80;;
44120;SDS011;29783;52.504;13.478;2022-10-17T13:44:51;6.75;;;1.52;;
44120;SDS011;29783;52.504;13.478;2022-10-17T13:47:23;8.52;;;2.13;;
44120;SDS011;29783;52.504;13.478;2022-10-17T13:49:54;6.50;;;2.10;;
44120;SDS011;29783;52.504;13.478;2022-10-17T13:52:26;9.82;;;2.08;;
44120;SDS011;29783;52.504;13.478;2022-10-17T13:54:53;7.93;;;2.35;;
44120;SDS011;29783;52.504;13.478;2022-10-17T13:57:22;8.55;;;1.98;;
44120;SDS011;29783;52.504;13.478;2022-10-17T13:59:53;10.93;;;2.45;;
44120;SDS011;29783;52.504;13.478;2022-10-17T14:02:28;6.63;;;1.80;;
44120;SDS011;29783;52.504;13.478;2022-10-17T14:05:01;5.55;;;1.80;;
44120;SDS011;29783;52.504;13.478;2022-10-17T14:07:39;5.30;;;1.25;;
44120;SDS011;29783;52.504;13.478;2022-10-17T14:10:24;10.23;;;1.75;;
44120;SDS011;29783;52.504;13.478;2022-10-17T14:12:50;6.22;;;1.67;;
44120;SDS011;29783;52.504;13.478;2022-10-17T14:15:17;15.32;;;1.92;;
44120;SDS011;29783;52.504;13.478;2022-10-17T14:17:52;7.22;;;1.83;;
44120;SDS011;29783;52.504;13.478;2022-10-17T14:20:23;13.88;;;2.65;;
44120;SDS011;29783;52.504;13.478;2022-10-17T14:22:49;6.97;;;1.60;;
44120;SDS011;29783;52.504;13.478;2022-10-17T14:28:38;10.07;;;1.90;;
44120;SDS011;29783;52.504;13.478;2022-10-17T14:31:11;7.80;;;1.58;;
44120;SDS011;29783;52.504;13.478;2022-10-17T14:33:49;4.65;;;1.83;;
44120;SDS011;29783;52.504;13.478;2022-10-17T14:39:28;4.30;;;1.80;;
44120;SDS011;29783;52.504;13.478;2022-10-17T14:42:14;6.40;;;1.90;;
44120;SDS011;29783;52.504;13.478;2022-10-17T14:48:23;5.28;;;1.88;;
44120;SDS011;29783;52.504;13.478;2022-10-17T14:51:06;5.43;;;1.98;;
44120;SDS011;29783;52.504;13.478;2022-10-17T14:53:34;4.32;;;1.80;;
44120;SDS011;29783;52.504;13.478;2022-10-17T14:56:02;7.22;;;1.67;;
44120;SDS011;29783;52.504;13.478;2022-10-17T15:01:06;5.43;;;2.38;;
44120;SDS011;29783;52.504;13.478;2022-10-17T15:04:00;6.10;;;1.30;;
44120;SDS011;29783;52.504;13.478;2022-10-17T15:07:04;5.88;;;1.80;;
44120;SDS011;29783;52.504;13.478;2022-10-17T15:09:37;9.95;;;2.40;;
44120;SDS011;29783;52.504;13.478;2022-10-17T15:12:06;4.95;;;2.10;;
44120;SDS011;29783;52.504;13.478;2022-10-17T15:14:41;3.40;;;1.88;;
44120;SDS011;29783;52.504;13.478;2022-10-17T15:20:36;10.25;;;2.05;;
44120;SDS011;29783;52.504;13.478;2022-10-17T15:23:02;4.60;;;2.15;;
44120;SDS011;29783;52.504;13.478;2022-10-17T15:25:47;13.10;;;2.65;;
44120;SDS011;29783;52.504;13.478;2022-10-17T15:28:19;9.63;;;2.33;;
44120;SDS011;29783;52.504;13.478;2022-10-17T15:30:54;8.52;;;2.30;;
44120;SDS011;29783;52.504;13.478;2022-10-17T15:36:29;13.88;;;2.47;;
44120;SDS011;29783;52.504;13.478;2022-10-17T15:38:59;13.35;;;2.30;;
44120;SDS011;29783;52.504;13.478;2022-10-17T15:41:29;8.23;;;2.00;;
44120;SDS011;29783;52.504;13.478;2022-10-17T15:43:57;17.23;;;2.40;;
44120;SDS011;29783;52.504;13.478;2022-10-17T15:46:33;14.25;;;2.60;;
44120;SDS011;29783;52.504;13.478;2022-10-17T15:49:00;11.77;;;2.08;;
44120;SDS011;29783;52.504;13.478;2022-10-17T15:51:31;15.85;;;2.55;;
44120;SDS011;29783;52.504;13.478;2022-10-17T15:57:15;10.20;;;2.53;;
44120;SDS011;29783;52.504;13.478;2022-10-17T15:59:53;11.10;;;2.50;;
44120;SDS011;29783;52.504;13.478;2022-10-17T16:02:22;9.55;;;2.65;;
44120;SDS011;29783;52.504;13.478;2022-10-17T16:04:51;14.18;;;2.65;;
44120;SDS011;29783;52.504;13.478;2022-10-17T16:07:23;11.73;;;2.75;;
44120;SDS011;29783;52.504;13.478;2022-10-17T16:09:50;9.23;;;2.88;;
44120;SDS011;29783;52.504;13.478;2022-10-17T16:12:25;9.13;;;2.67;;
44120;SDS011;29783;52.504;13.478;2022-10-17T16:18:22;6.70;;;2.90;;
44120;SDS011;29783;52.504;13.478;2022-10-17T16:23:39;7.45;;;2.50;;
44120;SDS011;29783;52.504;13.478;2022-10-17T16:26:06;8.63;;;2.88;;
44120;SDS011;29783;52.504;13.478;2022-10-17T16:28:33;8.05;;;2.53;;
44120;SDS011;29783;52.504;13.478;2022-10-17T16:30:59;8.40;;;2.30;;
44120;SDS011;29783;52.504;13.478;2022-10-17T16:33:25;16.13;;;2.65;;
44120;SDS011;29783;52.504;13.478;2022-10-17T16:35:51;9.52;;;2.45;;
44120;SDS011;29783;52.504;13.478;2022-10-17T16:38:17;7.10;;;2.40;;
44120;SDS011;29783;52.504;13.478;2022-10-17T16:40:43;3.30;;;2.58;;
44120;SDS011;29783;52.504;13.478;2022-10-17T16:43:10;9.98;;;2.65;;
44120;SDS011;29783;52.504;13.478;2022-10-17T16:45:37;8.55;;;3.70;;
44120;SDS011;29783;52.504;13.478;2022-10-17T16:48:03;8.40;;;2.60;;
44120;SDS011;29783;52.504;13.478;2022-10-17T16:50:31;7.22;;;2.70;;
44120;SDS011;29783;52.504;13.478;2022-10-17T16:53:08;8.88;;;3.10;;
44120;SDS011;29783;52.504;13.478;2022-10-17T16:59:21;15.73;;;4.78;;
44120;SDS011;29783;52.504;13.478;2022-10-17T17:01:47;6.07;;;3.42;;
44120;SDS011;29783;52.504;13.478;2022-10-17T17:04:13;9.07;;;5.20;;
44120;SDS011;29783;52.504;13.478;2022-10-17T17:13:26;12.10;;;4.60;;
44120;SDS011;29783;52.504;13.478;2022-10-17T17:16:00;12.30;;;4.13;;
44120;SDS011;29783;52.504;13.478;2022-10-17T17:18:30;13.98;;;4.00;;
44120;SDS011;29783;52.504;13.478;2022-10-17T17:21:02;6.95;;;3.90;;
44120;SDS011;29783;52.504;13.478;2022-10-17T17:23:31;12.57;;;4.45;;
44120;SDS011;29783;52.504;13.478;2022-10-17T17:25:58;11.00;;;4.40;;
44120;SDS011;29783;52.504;13.478;2022-10-17T17:28:29;7.03;;;4.43;;
44120;SDS011;29783;52.504;13.478;2022-10-17T17:31:11;8.45;;;4.03;;
44120;SDS011;29783;52.504;13.478;2022-10-17T17:33:39;13.77;;;3.53;;
44120;SDS011;29783;52.504;13.478;2022-10-17T17:36:12;12.45;;;4.35;;
44120;SDS011;29783;52.504;13.478;2022-10-17T17:39:17;7.63;;;4.07;;
44120;SDS011;29783;52.504;13.478;2022-10-17T17:41:42;13.50;;;3.80;;
44120;SDS011;29783;52.504;13.478;2022-10-17T17:44:10;9.77;;;4.10;;
44120;SDS011;29783;52.504;13.478;2022-10-17T17:46:37;18.70;;;4.70;;
44120;SDS011;29783;52.504;13.478;2022-10-17T17:49:03;12.45;;;4.30;;
44120;SDS011;29783;52.504;13.478;2022-10-17T17:51:29;10.15;;;4.75;;
44120;SDS011;29783;52.504;13.478;2022-10-17T17:53:58;15.32;;;4.90;;
44120;SDS011;29783;52.504;13.478;2022-10-17T17:56:25;17.50;;;4.65;;
44120;SDS011;29783;52.504;13.478;2022-10-17T17:58:55;10.35;;;4.95;;
44120;SDS011;29783;52.504;13.478;2022-10-17T18:01:24;11.35;;;5.07;;
44120;SDS011;29783;52.504;13.478;2022-10-17T18:03:52;9.93;;;4.82;;
44120;SDS011;29783;52.504;13.478;2022-10-17T18:06:23;9.60;;;4.72;;